Accueil
METAR-TAF:

METAR-TAF

Aéroports :

Iqaluit, Nunavut, Canada

Aéroport d'Iqaluit

latitude: 63-45N, longitude: 068-33W, altitude: 34 m

Observation

Le bulletin a été fait il y a 39 minutes, à 11:00 UTC
Vent 5 kt de nord-est
Température -3°C
Humidité 63%
Pression 1016 hPa
Visibilité: 48.3 km
Quelques nuages à une hauteur de 4000 ft

METAR: CYFB 241100Z 04005KT 30SM FEW040 M03/M09 A2999 RMK SC2 SLP161

Heure: 07:39 (11:39 UTC)

Prévision

Le bulletin a été fait il y a 5 heures et 57 minutes, à 05:42 UTC
Prévision valable du 24 à 06 UTC au 25 à 06 UTC
Vent 3 kt de direction variable
Visibilité: 10 km
Quelques nuages à une hauteur de 4000 ft
A partir de 25 à 0400 UTC
Vent 5 kt de est/sud-est
Visibilité: 10 km
Quelques nuages à une hauteur de 2000 ft
Nuages épars à une hauteur de 4000 ft

TAF: CYFB 240542Z 2406/2506 VRB03KT P6SM FEW040 FM250400 12005KT P6SM FEW020 SCT040 RMK NXT FCST BY 241200Z

Observations et prévisions météorologiques de plus de 4000 aéroports (messages METAR et TAF).

Les stations disponibles sont représentées par des disques jaunes et rouges sur la carte.

Passer la souris dessus pour voir le nom de la station.

Cliquer dessus pour voir les observations et prévisions météorologiques.

Pour changer de carte: cliquez sur les boutons verts avec une croix noire pour zoomer, sur le bouton vert avec un tiret pour effectuer un zoom arrière, ou sur les flèches vertes pour les cartes adjacentes.


METAR-TAF: